sensor_id;sensor_type;location;lat;lon;timestamp;P1;durP1;ratioP1;P2;durP2;ratioP2
37091;SDS011;23005;51.998;4.502;2023-03-14T00:00:59;33.30;;;4.90;;
37091;SDS011;23005;51.998;4.502;2023-03-14T00:02:20;26.48;;;4.90;;
37091;SDS011;23005;51.998;4.502;2023-03-14T00:03:42;28.73;;;5.55;;
37091;SDS011;23005;51.998;4.502;2023-03-14T00:05:04;24.15;;;4.05;;
37091;SDS011;23005;51.998;4.502;2023-03-14T00:06:25;30.92;;;4.57;;
37091;SDS011;23005;51.998;4.502;2023-03-14T00:07:46;28.42;;;4.78;;
37091;SDS011;23005;51.998;4.502;2023-03-14T00:09:07;27.02;;;4.10;;
37091;SDS011;23005;51.998;4.502;2023-03-14T00:10:28;34.17;;;4.47;;
37091;SDS011;23005;51.998;4.502;2023-03-14T00:11:49;24.23;;;5.00;;
37091;SDS011;23005;51.998;4.502;2023-03-14T00:13:09;27.60;;;4.03;;
37091;SDS011;23005;51.998;4.502;2023-03-14T00:14:31;31.63;;;3.70;;
37091;SDS011;23005;51.998;4.502;2023-03-14T00:17:12;27.95;;;4.60;;
37091;SDS011;23005;51.998;4.502;2023-03-14T00:18:33;24.92;;;3.85;;
37091;SDS011;23005;51.998;4.502;2023-03-14T00:19:55;27.15;;;3.58;;
37091;SDS011;23005;51.998;4.502;2023-03-14T00:21:15;23.25;;;3.00;;
37091;SDS011;23005;51.998;4.502;2023-03-14T00:22:36;17.07;;;3.30;;
37091;SDS011;23005;51.998;4.502;2023-03-14T00:23:57;19.60;;;3.65;;
37091;SDS011;23005;51.998;4.502;2023-03-14T00:25:18;21.73;;;4.00;;
37091;SDS011;23005;51.998;4.502;2023-03-14T00:26:39;27.63;;;4.00;;
37091;SDS011;23005;51.998;4.502;2023-03-14T00:28:00;23.87;;;3.97;;
37091;SDS011;23005;51.998;4.502;2023-03-14T00:29:20;19.77;;;3.10;;
37091;SDS011;23005;51.998;4.502;2023-03-14T00:30:41;18.67;;;3.33;;
37091;SDS011;23005;51.998;4.502;2023-03-14T00:32:03;21.05;;;3.53;;
37091;SDS011;23005;51.998;4.502;2023-03-14T00:33:23;24.15;;;3.85;;
37091;SDS011;23005;51.998;4.502;2023-03-14T00:34:44;29.00;;;4.28;;
37091;SDS011;23005;51.998;4.502;2023-03-14T00:36:07;25.85;;;3.67;;
37091;SDS011;23005;51.998;4.502;2023-03-14T00:37:29;23.08;;;3.75;;
37091;SDS011;23005;51.998;4.502;2023-03-14T00:38:50;24.67;;;4.23;;
37091;SDS011;23005;51.998;4.502;2023-03-14T00:40:11;23.05;;;4.50;;
37091;SDS011;23005;51.998;4.502;2023-03-14T00:41:32;30.35;;;4.63;;
37091;SDS011;23005;51.998;4.502;2023-03-14T00:42:53;35.33;;;4.33;;
37091;SDS011;23005;51.998;4.502;2023-03-14T00:44:14;28.30;;;4.88;;
37091;SDS011;23005;51.998;4.502;2023-03-14T00:45:35;30.30;;;4.22;;
37091;SDS011;23005;51.998;4.502;2023-03-14T00:46:55;30.45;;;4.60;;
37091;SDS011;23005;51.998;4.502;2023-03-14T00:48:16;29.25;;;4.90;;
37091;SDS011;23005;51.998;4.502;2023-03-14T00:49:37;35.78;;;4.70;;
37091;SDS011;23005;51.998;4.502;2023-03-14T00:50:57;30.83;;;5.20;;
37091;SDS011;23005;51.998;4.502;2023-03-14T00:52:19;27.48;;;4.20;;
37091;SDS011;23005;51.998;4.502;2023-03-14T00:53:40;27.70;;;4.50;;
37091;SDS011;23005;51.998;4.502;2023-03-14T00:55:01;25.33;;;4.88;;
37091;SDS011;23005;51.998;4.502;2023-03-14T00:56:22;26.48;;;4.05;;
37091;SDS011;23005;51.998;4.502;2023-03-14T00:57:43;39.72;;;4.57;;
37091;SDS011;23005;51.998;4.502;2023-03-14T00:59:04;38.17;;;5.43;;
37091;SDS011;23005;51.998;4.502;2023-03-14T01:00:24;32.38;;;4.38;;
37091;SDS011;23005;51.998;4.502;2023-03-14T01:01:45;29.50;;;4.65;;
37091;SDS011;23005;51.998;4.502;2023-03-14T01:03:07;32.25;;;4.57;;
37091;SDS011;23005;51.998;4.502;2023-03-14T01:04:27;30.90;;;4.43;;
37091;SDS011;23005;51.998;4.502;2023-03-14T01:05:48;40.60;;;4.68;;
37091;SDS011;23005;51.998;4.502;2023-03-14T01:07:09;33.58;;;5.07;;
37091;SDS011;23005;51.998;4.502;2023-03-14T01:08:31;35.83;;;5.03;;
37091;SDS011;23005;51.998;4.502;2023-03-14T01:09:52;31.48;;;4.32;;
37091;SDS011;23005;51.998;4.502;2023-03-14T01:11:13;36.17;;;4.43;;
37091;SDS011;23005;51.998;4.502;2023-03-14T01:12:35;27.42;;;4.47;;
37091;SDS011;23005;51.998;4.502;2023-03-14T01:13:55;31.00;;;4.70;;
37091;SDS011;23005;51.998;4.502;2023-03-14T01:15:16;25.75;;;4.25;;
37091;SDS011;23005;51.998;4.502;2023-03-14T01:16:37;29.08;;;3.97;;
37091;SDS011;23005;51.998;4.502;2023-03-14T01:17:58;25.00;;;3.83;;
37091;SDS011;23005;51.998;4.502;2023-03-14T01:19:18;21.98;;;4.30;;
37091;SDS011;23005;51.998;4.502;2023-03-14T01:20:39;21.83;;;3.72;;
37091;SDS011;23005;51.998;4.502;2023-03-14T01:22:00;25.55;;;3.65;;
37091;SDS011;23005;51.998;4.502;2023-03-14T01:23:21;26.52;;;4.45;;
37091;SDS011;23005;51.998;4.502;2023-03-14T01:24:43;37.45;;;4.60;;
37091;SDS011;23005;51.998;4.502;2023-03-14T01:26:03;26.55;;;3.95;;
37091;SDS011;23005;51.998;4.502;2023-03-14T01:27:24;30.60;;;4.13;;
37091;SDS011;23005;51.998;4.502;2023-03-14T01:28:45;28.45;;;4.20;;
37091;SDS011;23005;51.998;4.502;2023-03-14T01:31:28;25.75;;;4.40;;
37091;SDS011;23005;51.998;4.502;2023-03-14T01:32:49;28.52;;;3.95;;
37091;SDS011;23005;51.998;4.502;2023-03-14T01:34:10;26.23;;;4.72;;
37091;SDS011;23005;51.998;4.502;2023-03-14T01:35:31;24.70;;;4.03;;
37091;SDS011;23005;51.998;4.502;2023-03-14T01:36:51;33.80;;;4.23;;
37091;SDS011;23005;51.998;4.502;2023-03-14T01:38:12;26.80;;;4.25;;
37091;SDS011;23005;51.998;4.502;2023-03-14T01:39:33;18.27;;;3.90;;
37091;SDS011;23005;51.998;4.502;2023-03-14T01:40:55;23.60;;;4.03;;
37091;SDS011;23005;51.998;4.502;2023-03-14T01:42:16;27.90;;;4.13;;
37091;SDS011;23005;51.998;4.502;2023-03-14T01:43:37;25.58;;;3.83;;
37091;SDS011;23005;51.998;4.502;2023-03-14T01:44:59;29.25;;;4.32;;
37091;SDS011;23005;51.998;4.502;2023-03-14T01:47:42;29.88;;;3.75;;
37091;SDS011;23005;51.998;4.502;2023-03-14T01:49:07;20.90;;;3.42;;
37091;SDS011;23005;51.998;4.502;2023-03-14T01:50:31;26.85;;;4.28;;
37091;SDS011;23005;51.998;4.502;2023-03-14T01:51:53;25.65;;;3.95;;
37091;SDS011;23005;51.998;4.502;2023-03-14T01:53:16;35.10;;;5.40;;
37091;SDS011;23005;51.998;4.502;2023-03-14T01:54:37;21.98;;;4.03;;
37091;SDS011;23005;51.998;4.502;2023-03-14T01:56:01;19.35;;;3.90;;
37091;SDS011;23005;51.998;4.502;2023-03-14T01:57:24;21.80;;;3.38;;
37091;SDS011;23005;51.998;4.502;2023-03-14T01:58:48;29.60;;;3.80;;
37091;SDS011;23005;51.998;4.502;2023-03-14T02:00:11;24.38;;;3.70;;
37091;SDS011;23005;51.998;4.502;2023-03-14T02:01:33;31.75;;;3.60;;
37091;SDS011;23005;51.998;4.502;2023-03-14T02:02:55;20.63;;;3.38;;
37091;SDS011;23005;51.998;4.502;2023-03-14T02:04:18;20.42;;;3.92;;
37091;SDS011;23005;51.998;4.502;2023-03-14T02:05:40;22.88;;;3.42;;
37091;SDS011;23005;51.998;4.502;2023-03-14T02:07:03;18.70;;;3.40;;
37091;SDS011;23005;51.998;4.502;2023-03-14T02:08:28;19.60;;;3.50;;
37091;SDS011;23005;51.998;4.502;2023-03-14T02:09:48;30.13;;;3.88;;
37091;SDS011;23005;51.998;4.502;2023-03-14T02:11:10;29.05;;;3.95;;
37091;SDS011;23005;51.998;4.502;2023-03-14T02:12:31;22.10;;;3.30;;
37091;SDS011;23005;51.998;4.502;2023-03-14T02:13:52;19.67;;;3.58;;
37091;SDS011;23005;51.998;4.502;2023-03-14T02:15:13;18.55;;;3.70;;
37091;SDS011;23005;51.998;4.502;2023-03-14T02:16:34;27.70;;;3.45;;
37091;SDS011;23005;51.998;4.502;2023-03-14T02:17:55;21.85;;;3.20;;
37091;SDS011;23005;51.998;4.502;2023-03-14T02:19:17;24.45;;;4.85;;
37091;SDS011;23005;51.998;4.502;2023-03-14T02:20:45;23.65;;;4.00;;
37091;SDS011;23005;51.998;4.502;2023-03-14T02:22:11;18.13;;;4.13;;
37091;SDS011;23005;51.998;4.502;2023-03-14T02:23:35;19.45;;;3.33;;
37091;SDS011;23005;51.998;4.502;2023-03-14T02:25:01;22.65;;;3.35;;
37091;SDS011;23005;51.998;4.502;2023-03-14T02:26:27;20.70;;;3.55;;
37091;SDS011;23005;51.998;4.502;2023-03-14T02:27:51;17.27;;;3.05;;
37091;SDS011;23005;51.998;4.502;2023-03-14T02:29:12;25.35;;;3.50;;
37091;SDS011;23005;51.998;4.502;2023-03-14T02:30:33;22.98;;;3.83;;
37091;SDS011;23005;51.998;4.502;2023-03-14T02:31:54;23.58;;;4.53;;
37091;SDS011;23005;51.998;4.502;2023-03-14T02:33:16;24.23;;;3.65;;
37091;SDS011;23005;51.998;4.502;2023-03-14T02:34:39;19.45;;;3.75;;
37091;SDS011;23005;51.998;4.502;2023-03-14T02:36:02;23.80;;;3.80;;
37091;SDS011;23005;51.998;4.502;2023-03-14T02:37:25;16.92;;;3.15;;
37091;SDS011;23005;51.998;4.502;2023-03-14T02:38:50;21.70;;;4.10;;
37091;SDS011;23005;51.998;4.502;2023-03-14T02:40:14;23.48;;;3.30;;
37091;SDS011;23005;51.998;4.502;2023-03-14T02:41:35;19.58;;;3.75;;
37091;SDS011;23005;51.998;4.502;2023-03-14T02:42:57;18.95;;;3.60;;
37091;SDS011;23005;51.998;4.502;2023-03-14T02:44:18;21.42;;;4.15;;
37091;SDS011;23005;51.998;4.502;2023-03-14T02:45:40;24.70;;;3.73;;
37091;SDS011;23005;51.998;4.502;2023-03-14T02:47:02;18.23;;;3.47;;
37091;SDS011;23005;51.998;4.502;2023-03-14T02:48:24;20.30;;;3.58;;
37091;SDS011;23005;51.998;4.502;2023-03-14T02:49:45;19.92;;;3.35;;
37091;SDS011;23005;51.998;4.502;2023-03-14T02:51:07;18.67;;;3.90;;
37091;SDS011;23005;51.998;4.502;2023-03-14T02:52:28;16.20;;;3.20;;
37091;SDS011;23005;51.998;4.502;2023-03-14T02:53:49;21.52;;;3.80;;
37091;SDS011;23005;51.998;4.502;2023-03-14T02:55:09;23.40;;;3.78;;
37091;SDS011;23005;51.998;4.502;2023-03-14T02:56:30;21.25;;;3.47;;
37091;SDS011;23005;51.998;4.502;2023-03-14T02:57:51;17.85;;;3.75;;
37091;SDS011;23005;51.998;4.502;2023-03-14T02:59:13;26.23;;;3.97;;
37091;SDS011;23005;51.998;4.502;2023-03-14T03:00:34;20.10;;;4.07;;
37091;SDS011;23005;51.998;4.502;2023-03-14T03:01:55;28.25;;;4.22;;
37091;SDS011;23005;51.998;4.502;2023-03-14T03:03:16;22.38;;;3.60;;
37091;SDS011;23005;51.998;4.502;2023-03-14T03:04:36;26.30;;;5.25;;
37091;SDS011;23005;51.998;4.502;2023-03-14T03:05:57;24.40;;;3.65;;
37091;SDS011;23005;51.998;4.502;2023-03-14T03:07:18;25.70;;;3.78;;
37091;SDS011;23005;51.998;4.502;2023-03-14T03:08:39;24.30;;;4.25;;
37091;SDS011;23005;51.998;4.502;2023-03-14T03:09:59;22.33;;;4.00;;
37091;SDS011;23005;51.998;4.502;2023-03-14T03:11:20;26.38;;;3.92;;
37091;SDS011;23005;51.998;4.502;2023-03-14T03:12:41;19.50;;;4.07;;
37091;SDS011;23005;51.998;4.502;2023-03-14T03:14:02;22.80;;;3.72;;
37091;SDS011;23005;51.998;4.502;2023-03-14T03:15:24;30.35;;;4.15;;
37091;SDS011;23005;51.998;4.502;2023-03-14T03:16:45;26.50;;;4.25;;
37091;SDS011;23005;51.998;4.502;2023-03-14T03:18:06;25.20;;;4.23;;
37091;SDS011;23005;51.998;4.502;2023-03-14T03:19:26;26.75;;;4.35;;
37091;SDS011;23005;51.998;4.502;2023-03-14T03:20:47;23.98;;;4.50;;
37091;SDS011;23005;51.998;4.502;2023-03-14T03:22:08;29.63;;;4.93;;
37091;SDS011;23005;51.998;4.502;2023-03-14T03:23:28;20.53;;;3.40;;
37091;SDS011;23005;51.998;4.502;2023-03-14T03:24:49;21.57;;;3.47;;
37091;SDS011;23005;51.998;4.502;2023-03-14T03:26:10;24.60;;;4.28;;
37091;SDS011;23005;51.998;4.502;2023-03-14T03:27:31;31.30;;;4.30;;
37091;SDS011;23005;51.998;4.502;2023-03-14T03:28:52;17.63;;;3.10;;
37091;SDS011;23005;51.998;4.502;2023-03-14T03:30:13;22.48;;;3.95;;
37091;SDS011;23005;51.998;4.502;2023-03-14T03:31:37;29.10;;;4.10;;
37091;SDS011;23005;51.998;4.502;2023-03-14T03:32:58;24.85;;;4.88;;
37091;SDS011;23005;51.998;4.502;2023-03-14T03:34:18;21.98;;;3.70;;
37091;SDS011;23005;51.998;4.502;2023-03-14T03:35:43;20.03;;;3.60;;
37091;SDS011;23005;51.998;4.502;2023-03-14T03:37:05;20.02;;;4.25;;
37091;SDS011;23005;51.998;4.502;2023-03-14T03:38:25;23.92;;;4.00;;
37091;SDS011;23005;51.998;4.502;2023-03-14T03:39:46;23.70;;;3.73;;
37091;SDS011;23005;51.998;4.502;2023-03-14T03:41:07;25.00;;;4.38;;
37091;SDS011;23005;51.998;4.502;2023-03-14T03:42:28;27.45;;;5.53;;
37091;SDS011;23005;51.998;4.502;2023-03-14T03:43:48;29.83;;;5.72;;
37091;SDS011;23005;51.998;4.502;2023-03-14T03:45:09;19.27;;;3.47;;
37091;SDS011;23005;51.998;4.502;2023-03-14T03:46:30;21.02;;;4.32;;
37091;SDS011;23005;51.998;4.502;2023-03-14T03:47:52;15.27;;;3.55;;
37091;SDS011;23005;51.998;4.502;2023-03-14T03:49:13;16.58;;;3.70;;
37091;SDS011;23005;51.998;4.502;2023-03-14T03:50:34;21.67;;;4.37;;
37091;SDS011;23005;51.998;4.502;2023-03-14T03:51:57;24.48;;;3.58;;
37091;SDS011;23005;51.998;4.502;2023-03-14T03:53:18;29.17;;;3.97;;
37091;SDS011;23005;51.998;4.502;2023-03-14T03:54:52;26.75;;;4.18;;
37091;SDS011;23005;51.998;4.502;2023-03-14T03:56:12;20.25;;;3.70;;
37091;SDS011;23005;51.998;4.502;2023-03-14T03:57:33;17.92;;;3.42;;
37091;SDS011;23005;51.998;4.502;2023-03-14T03:58:54;22.80;;;4.20;;
37091;SDS011;23005;51.998;4.502;2023-03-14T04:00:15;20.48;;;3.97;;
37091;SDS011;23005;51.998;4.502;2023-03-14T04:01:36;24.38;;;3.83;;
37091;SDS011;23005;51.998;4.502;2023-03-14T04:02:58;19.95;;;3.70;;
37091;SDS011;23005;51.998;4.502;2023-03-14T04:04:19;22.25;;;3.50;;
37091;SDS011;23005;51.998;4.502;2023-03-14T04:05:40;22.92;;;3.53;;
37091;SDS011;23005;51.998;4.502;2023-03-14T04:07:01;21.15;;;3.83;;
37091;SDS011;23005;51.998;4.502;2023-03-14T04:08:21;26.80;;;4.73;;
37091;SDS011;23005;51.998;4.502;2023-03-14T04:09:43;18.33;;;2.93;;
37091;SDS011;23005;51.998;4.502;2023-03-14T04:11:04;26.73;;;4.47;;
37091;SDS011;23005;51.998;4.502;2023-03-14T04:13:45;15.95;;;3.00;;
37091;SDS011;23005;51.998;4.502;2023-03-14T04:15:06;16.63;;;3.38;;
37091;SDS011;23005;51.998;4.502;2023-03-14T04:16:28;24.13;;;3.58;;
37091;SDS011;23005;51.998;4.502;2023-03-14T04:17:49;22.85;;;3.72;;
37091;SDS011;23005;51.998;4.502;2023-03-14T04:19:11;24.08;;;4.25;;
37091;SDS011;23005;51.998;4.502;2023-03-14T04:20:33;16.98;;;3.30;;
37091;SDS011;23005;51.998;4.502;2023-03-14T04:21:54;20.00;;;3.72;;
37091;SDS011;23005;51.998;4.502;2023-03-14T04:23:15;21.45;;;3.72;;
37091;SDS011;23005;51.998;4.502;2023-03-14T04:24:36;19.27;;;3.47;;
37091;SDS011;23005;51.998;4.502;2023-03-14T04:25:57;23.85;;;3.53;;
37091;SDS011;23005;51.998;4.502;2023-03-14T04:27:17;22.50;;;3.40;;
37091;SDS011;23005;51.998;4.502;2023-03-14T04:28:38;23.95;;;3.90;;
37091;SDS011;23005;51.998;4.502;2023-03-14T04:29:59;20.58;;;3.20;;
37091;SDS011;23005;51.998;4.502;2023-03-14T04:31:20;24.77;;;3.80;;
37091;SDS011;23005;51.998;4.502;2023-03-14T04:32:41;18.80;;;3.80;;
37091;SDS011;23005;51.998;4.502;2023-03-14T04:34:02;21.48;;;3.35;;
37091;SDS011;23005;51.998;4.502;2023-03-14T04:35:24;35.03;;;4.97;;
37091;SDS011;23005;51.998;4.502;2023-03-14T04:36:45;22.67;;;4.05;;
37091;SDS011;23005;51.998;4.502;2023-03-14T04:38:05;24.08;;;4.00;;
37091;SDS011;23005;51.998;4.502;2023-03-14T04:39:26;27.20;;;4.20;;
37091;SDS011;23005;51.998;4.502;2023-03-14T04:40:47;24.58;;;4.95;;
37091;SDS011;23005;51.998;4.502;2023-03-14T04:42:08;19.20;;;3.72;;
37091;SDS011;23005;51.998;4.502;2023-03-14T04:43:29;18.70;;;3.85;;
37091;SDS011;23005;51.998;4.502;2023-03-14T04:44:49;25.13;;;4.72;;
37091;SDS011;23005;51.998;4.502;2023-03-14T04:46:10;21.65;;;4.25;;
37091;SDS011;23005;51.998;4.502;2023-03-14T04:47:30;17.77;;;3.53;;
37091;SDS011;23005;51.998;4.502;2023-03-14T04:48:51;26.23;;;4.93;;
37091;SDS011;23005;51.998;4.502;2023-03-14T04:50:12;24.60;;;4.43;;
37091;SDS011;23005;51.998;4.502;2023-03-14T04:51:34;28.63;;;5.13;;
37091;SDS011;23005;51.998;4.502;2023-03-14T04:52:55;26.27;;;4.47;;
37091;SDS011;23005;51.998;4.502;2023-03-14T04:54:15;25.08;;;4.18;;
37091;SDS011;23005;51.998;4.502;2023-03-14T04:55:36;22.90;;;4.20;;
37091;SDS011;23005;51.998;4.502;2023-03-14T04:56:56;23.13;;;4.53;;
37091;SDS011;23005;51.998;4.502;2023-03-14T04:58:17;29.20;;;4.13;;
37091;SDS011;23005;51.998;4.502;2023-03-14T04:59:38;21.98;;;3.95;;
37091;SDS011;23005;51.998;4.502;2023-03-14T05:01:01;24.05;;;4.90;;
37091;SDS011;23005;51.998;4.502;2023-03-14T05:02:22;24.70;;;5.00;;
37091;SDS011;23005;51.998;4.502;2023-03-14T05:03:43;32.10;;;5.45;;
37091;SDS011;23005;51.998;4.502;2023-03-14T05:05:04;22.33;;;4.65;;
37091;SDS011;23005;51.998;4.502;2023-03-14T05:06:25;20.02;;;4.68;;
37091;SDS011;23005;51.998;4.502;2023-03-14T05:07:48;30.73;;;5.18;;
37091;SDS011;23005;51.998;4.502;2023-03-14T05:09:08;23.45;;;4.55;;
37091;SDS011;23005;51.998;4.502;2023-03-14T05:10:29;22.52;;;6.30;;
37091;SDS011;23005;51.998;4.502;2023-03-14T05:11:50;21.77;;;5.63;;
37091;SDS011;23005;51.998;4.502;2023-03-14T05:13:10;26.05;;;6.78;;
37091;SDS011;23005;51.998;4.502;2023-03-14T05:14:31;31.70;;;6.13;;
37091;SDS011;23005;51.998;4.502;2023-03-14T05:15:51;23.60;;;6.72;;
37091;SDS011;23005;51.998;4.502;2023-03-14T05:17:12;20.25;;;6.63;;
37091;SDS011;23005;51.998;4.502;2023-03-14T05:19:54;25.77;;;7.70;;
37091;SDS011;23005;51.998;4.502;2023-03-14T05:21:15;17.50;;;6.60;;
37091;SDS011;23005;51.998;4.502;2023-03-14T05:22:36;25.67;;;6.60;;
37091;SDS011;23005;51.998;4.502;2023-03-14T05:23:58;25.08;;;8.18;;
37091;SDS011;23005;51.998;4.502;2023-03-14T05:25:19;24.83;;;8.90;;
37091;SDS011;23005;51.998;4.502;2023-03-14T05:26:39;20.20;;;7.78;;
37091;SDS011;23005;51.998;4.502;2023-03-14T05:28:00;24.00;;;8.05;;
37091;SDS011;23005;51.998;4.502;2023-03-14T05:29:21;30.35;;;7.28;;
37091;SDS011;23005;51.998;4.502;2023-03-14T05:30:41;20.63;;;5.50;;
37091;SDS011;23005;51.998;4.502;2023-03-14T05:32:02;16.35;;;3.53;;
37091;SDS011;23005;51.998;4.502;2023-03-14T05:33:23;24.48;;;4.88;;
37091;SDS011;23005;51.998;4.502;2023-03-14T05:34:43;18.92;;;3.85;;
37091;SDS011;23005;51.998;4.502;2023-03-14T05:36:04;28.50;;;3.63;;
37091;SDS011;23005;51.998;4.502;2023-03-14T05:37:26;21.58;;;3.42;;
37091;SDS011;23005;51.998;4.502;2023-03-14T05:38:46;15.65;;;2.78;;
37091;SDS011;23005;51.998;4.502;2023-03-14T05:40:09;22.88;;;3.15;;
37091;SDS011;23005;51.998;4.502;2023-03-14T05:41:30;23.63;;;3.05;;
37091;SDS011;23005;51.998;4.502;2023-03-14T05:42:51;27.70;;;3.35;;
37091;SDS011;23005;51.998;4.502;2023-03-14T05:44:11;30.30;;;3.45;;
37091;SDS011;23005;51.998;4.502;2023-03-14T05:45:32;18.85;;;2.80;;
37091;SDS011;23005;51.998;4.502;2023-03-14T05:46:54;22.55;;;3.05;;
37091;SDS011;23005;51.998;4.502;2023-03-14T05:48:15;17.33;;;2.80;;
37091;SDS011;23005;51.998;4.502;2023-03-14T05:49:36;16.00;;;2.20;;
37091;SDS011;23005;51.998;4.502;2023-03-14T05:50:57;16.85;;;2.25;;
37091;SDS011;23005;51.998;4.502;2023-03-14T05:52:18;20.00;;;2.55;;
37091;SDS011;23005;51.998;4.502;2023-03-14T05:53:38;19.52;;;3.00;;
37091;SDS011;23005;51.998;4.502;2023-03-14T05:54:59;19.17;;;2.40;;
37091;SDS011;23005;51.998;4.502;2023-03-14T05:56:21;19.80;;;2.92;;
37091;SDS011;23005;51.998;4.502;2023-03-14T05:57:42;14.07;;;2.28;;
37091;SDS011;23005;51.998;4.502;2023-03-14T05:59:03;17.33;;;2.95;;
37091;SDS011;23005;51.998;4.502;2023-03-14T06:00:24;17.08;;;2.72;;
37091;SDS011;23005;51.998;4.502;2023-03-14T06:01:45;15.43;;;2.08;;
37091;SDS011;23005;51.998;4.502;2023-03-14T06:03:06;15.50;;;2.90;;
37091;SDS011;23005;51.998;4.502;2023-03-14T06:04:26;12.90;;;2.07;;
37091;SDS011;23005;51.998;4.502;2023-03-14T06:05:49;14.65;;;2.53;;
37091;SDS011;23005;51.998;4.502;2023-03-14T06:07:10;22.35;;;2.92;;
37091;SDS011;23005;51.998;4.502;2023-03-14T06:08:30;12.85;;;1.88;;
37091;SDS011;23005;51.998;4.502;2023-03-14T06:09:52;15.10;;;2.50;;
37091;SDS011;23005;51.998;4.502;2023-03-14T06:11:12;21.63;;;2.78;;
37091;SDS011;23005;51.998;4.502;2023-03-14T06:12:34;23.23;;;3.15;;
37091;SDS011;23005;51.998;4.502;2023-03-14T06:13:55;19.80;;;2.97;;
37091;SDS011;23005;51.998;4.502;2023-03-14T06:15:16;26.42;;;3.13;;
37091;SDS011;23005;51.998;4.502;2023-03-14T06:16:36;20.80;;;2.90;;
37091;SDS011;23005;51.998;4.502;2023-03-14T06:17:57;18.65;;;3.53;;
37091;SDS011;23005;51.998;4.502;2023-03-14T06:19:18;21.83;;;2.90;;
37091;SDS011;23005;51.998;4.502;2023-03-14T06:20:38;22.15;;;2.83;;
37091;SDS011;23005;51.998;4.502;2023-03-14T06:21:59;13.57;;;2.10;;
37091;SDS011;23005;51.998;4.502;2023-03-14T06:23:20;16.90;;;2.45;;
37091;SDS011;23005;51.998;4.502;2023-03-14T06:24:41;17.33;;;2.58;;
37091;SDS011;23005;51.998;4.502;2023-03-14T06:26:01;13.65;;;2.17;;
37091;SDS011;23005;51.998;4.502;2023-03-14T06:27:22;15.07;;;2.88;;
37091;SDS011;23005;51.998;4.502;2023-03-14T06:28:44;19.20;;;2.75;;
37091;SDS011;23005;51.998;4.502;2023-03-14T06:30:05;20.77;;;2.58;;
37091;SDS011;23005;51.998;4.502;2023-03-14T06:31:27;15.48;;;2.45;;
37091;SDS011;23005;51.998;4.502;2023-03-14T06:32:47;15.60;;;2.75;;
37091;SDS011;23005;51.998;4.502;2023-03-14T06:34:08;15.60;;;2.40;;
37091;SDS011;23005;51.998;4.502;2023-03-14T06:35:29;18.02;;;2.50;;
37091;SDS011;23005;51.998;4.502;2023-03-14T06:36:49;9.02;;;2.13;;
37091;SDS011;23005;51.998;4.502;2023-03-14T06:38:10;17.50;;;2.00;;
37091;SDS011;23005;51.998;4.502;2023-03-14T06:39:31;11.05;;;2.10;;
37091;SDS011;23005;51.998;4.502;2023-03-14T06:40:51;15.20;;;1.83;;
37091;SDS011;23005;51.998;4.502;2023-03-14T06:42:12;15.27;;;1.85;;
37091;SDS011;23005;51.998;4.502;2023-03-14T06:43:33;13.55;;;1.92;;
37091;SDS011;23005;51.998;4.502;2023-03-14T06:44:55;12.18;;;1.85;;
37091;SDS011;23005;51.998;4.502;2023-03-14T06:46:16;16.13;;;2.25;;
37091;SDS011;23005;51.998;4.502;2023-03-14T06:47:37;20.35;;;2.65;;
37091;SDS011;23005;51.998;4.502;2023-03-14T06:48:57;17.55;;;2.55;;
37091;SDS011;23005;51.998;4.502;2023-03-14T06:50:18;17.02;;;2.20;;
37091;SDS011;23005;51.998;4.502;2023-03-14T06:51:39;15.80;;;2.63;;
37091;SDS011;23005;51.998;4.502;2023-03-14T06:53:00;15.48;;;2.00;;
37091;SDS011;23005;51.998;4.502;2023-03-14T06:54:21;21.15;;;2.33;;
37091;SDS011;23005;51.998;4.502;2023-03-14T06:55:42;12.48;;;2.33;;
37091;SDS011;23005;51.998;4.502;2023-03-14T06:57:03;16.60;;;2.60;;
37091;SDS011;23005;51.998;4.502;2023-03-14T06:58:23;18.85;;;2.40;;
37091;SDS011;23005;51.998;4.502;2023-03-14T06:59:44;18.73;;;2.50;;
37091;SDS011;23005;51.998;4.502;2023-03-14T07:01:10;15.43;;;2.28;;
37091;SDS011;23005;51.998;4.502;2023-03-14T07:02:37;36.22;;;3.72;;
37091;SDS011;23005;51.998;4.502;2023-03-14T07:04:02;20.33;;;3.05;;
37091;SDS011;23005;51.998;4.502;2023-03-14T07:05:23;18.98;;;2.35;;
37091;SDS011;23005;51.998;4.502;2023-03-14T07:06:43;20.40;;;2.30;;
37091;SDS011;23005;51.998;4.502;2023-03-14T07:08:04;21.38;;;2.72;;
37091;SDS011;23005;51.998;4.502;2023-03-14T07:09:25;25.30;;;3.15;;
37091;SDS011;23005;51.998;4.502;2023-03-14T07:10:46;26.42;;;3.03;;
37091;SDS011;23005;51.998;4.502;2023-03-14T07:12:07;26.60;;;3.28;;
37091;SDS011;23005;51.998;4.502;2023-03-14T07:13:28;23.98;;;2.97;;
37091;SDS011;23005;51.998;4.502;2023-03-14T07:14:49;26.65;;;4.10;;
37091;SDS011;23005;51.998;4.502;2023-03-14T07:16:11;19.50;;;2.45;;
37091;SDS011;23005;51.998;4.502;2023-03-14T07:17:32;34.65;;;4.30;;
37091;SDS011;23005;51.998;4.502;2023-03-14T07:18:52;20.25;;;2.92;;
37091;SDS011;23005;51.998;4.502;2023-03-14T07:20:13;21.10;;;3.00;;
37091;SDS011;23005;51.998;4.502;2023-03-14T07:21:35;27.58;;;2.92;;
37091;SDS011;23005;51.998;4.502;2023-03-14T07:22:57;20.58;;;3.10;;
37091;SDS011;23005;51.998;4.502;2023-03-14T07:24:18;19.00;;;2.78;;
37091;SDS011;23005;51.998;4.502;2023-03-14T07:25:39;22.25;;;3.38;;
37091;SDS011;23005;51.998;4.502;2023-03-14T07:27:00;19.92;;;3.00;;
37091;SDS011;23005;51.998;4.502;2023-03-14T07:28:20;26.33;;;3.10;;
37091;SDS011;23005;51.998;4.502;2023-03-14T07:29:41;17.95;;;2.85;;
37091;SDS011;23005;51.998;4.502;2023-03-14T07:31:02;25.10;;;3.45;;
37091;SDS011;23005;51.998;4.502;2023-03-14T07:32:25;20.20;;;2.83;;
37091;SDS011;23005;51.998;4.502;2023-03-14T07:33:46;21.45;;;3.00;;
37091;SDS011;23005;51.998;4.502;2023-03-14T07:35:07;20.92;;;2.72;;
37091;SDS011;23005;51.998;4.502;2023-03-14T07:36:28;31.05;;;3.38;;
37091;SDS011;23005;51.998;4.502;2023-03-14T07:37:49;23.27;;;2.90;;
37091;SDS011;23005;51.998;4.502;2023-03-14T07:39:09;25.17;;;3.40;;
37091;SDS011;23005;51.998;4.502;2023-03-14T07:40:30;27.20;;;3.42;;
37091;SDS011;23005;51.998;4.502;2023-03-14T07:41:51;18.87;;;2.83;;
37091;SDS011;23005;51.998;4.502;2023-03-14T07:43:12;20.05;;;3.28;;
37091;SDS011;23005;51.998;4.502;2023-03-14T07:44:32;14.63;;;2.33;;
37091;SDS011;23005;51.998;4.502;2023-03-14T07:45:53;16.42;;;2.13;;
37091;SDS011;23005;51.998;4.502;2023-03-14T07:47:18;16.27;;;1.90;;
37091;SDS011;23005;51.998;4.502;2023-03-14T07:48:41;8.13;;;1.23;;
37091;SDS011;23005;51.998;4.502;2023-03-14T07:50:03;10.88;;;1.75;;
37091;SDS011;23005;51.998;4.502;2023-03-14T07:51:24;9.95;;;1.65;;
37091;SDS011;23005;51.998;4.502;2023-03-14T07:52:45;6.80;;;1.63;;
37091;SDS011;23005;51.998;4.502;2023-03-14T07:54:06;12.98;;;1.80;;
37091;SDS011;23005;51.998;4.502;2023-03-14T07:55:28;18.67;;;2.20;;
37091;SDS011;23005;51.998;4.502;2023-03-14T07:56:49;17.45;;;2.28;;
37091;SDS011;23005;51.998;4.502;2023-03-14T07:58:11;22.90;;;2.67;;
37091;SDS011;23005;51.998;4.502;2023-03-14T07:59:32;21.65;;;3.42;;
37091;SDS011;23005;51.998;4.502;2023-03-14T08:00:53;25.60;;;2.83;;
37091;SDS011;23005;51.998;4.502;2023-03-14T08:02:15;30.80;;;2.88;;
37091;SDS011;23005;51.998;4.502;2023-03-14T08:03:36;15.05;;;2.30;;
37091;SDS011;23005;51.998;4.502;2023-03-14T08:04:58;24.25;;;2.38;;
37091;SDS011;23005;51.998;4.502;2023-03-14T08:06:19;23.52;;;2.50;;
37091;SDS011;23005;51.998;4.502;2023-03-14T08:07:39;23.52;;;2.45;;
37091;SDS011;23005;51.998;4.502;2023-03-14T08:09:00;25.92;;;2.60;;
37091;SDS011;23005;51.998;4.502;2023-03-14T08:10:21;19.40;;;2.20;;